createdAt,value
2019-01-15T00:00:52.666Z,67.26
2019-01-15T00:01:52.633Z,72.66
2019-01-15T00:02:52.633Z,63.39
2019-01-15T00:03:52.621Z,66.69
2019-01-15T00:04:52.613Z,66.79
2019-01-15T00:05:52.634Z,63.39
2019-01-15T00:06:52.602Z,64.99
2019-01-15T00:07:52.593Z,61.58
2019-01-15T00:08:52.581Z,59.98
2019-01-15T00:09:52.578Z,58.28
2019-01-15T00:10:52.593Z,57.04
2019-01-15T00:11:52.564Z,56.01
2019-01-15T00:12:52.556Z,52.69
2019-01-15T00:13:52.545Z,59.41
2019-01-15T00:14:52.535Z,54.77
2019-01-15T00:15:52.565Z,55.53
2019-01-15T00:16:52.523Z,59.50
2019-01-15T00:17:52.519Z,66.88
2019-01-15T00:18:52.508Z,61.58
2019-01-15T00:19:52.505Z,64.71
2019-01-15T00:20:52.519Z,66.50
2019-01-15T00:21:52.490Z,66.98
2019-01-15T00:22:52.483Z,66.79
2019-01-15T00:23:52.468Z,70.95
2019-01-15T00:24:52.468Z,62.53
2019-01-15T00:25:52.490Z,72.56
2019-01-15T00:26:52.451Z,71.33
2019-01-15T00:27:52.447Z,70.48
2019-01-15T00:28:52.440Z,74.17
2019-01-15T00:29:52.431Z,71.80
2019-01-15T00:30:52.455Z,69.53
2019-01-15T00:31:52.420Z,65.47
2019-01-15T00:32:52.406Z,72.09
2019-01-15T00:33:52.406Z,69.25
2019-01-15T00:34:52.395Z,70.86
2019-01-15T00:35:52.420Z,67.83
2019-01-15T00:36:52.378Z,68.68
2019-01-15T00:37:52.375Z,67.26
2019-01-15T00:38:52.368Z,70.57
2019-01-15T00:39:52.362Z,69.53
2019-01-15T00:40:52.372Z,75.31
2019-01-15T00:41:52.345Z,70.95
2019-01-15T00:42:52.337Z,68.40
2019-01-15T00:43:52.329Z,69.34
2019-01-15T00:44:52.323Z,71.71
2019-01-15T00:45:52.345Z,66.60
2019-01-15T00:46:52.340Z,70.57
2019-01-15T00:47:52.295Z,77.29
2019-01-15T00:48:52.294Z,76.25
2019-01-15T00:49:52.279Z,70.57
2019-01-15T00:50:52.282Z,69.91
2019-01-15T00:51:52.300Z,67.64
2019-01-15T00:52:52.265Z,64.23
2019-01-15T00:53:52.256Z,68.30
2019-01-15T00:54:52.249Z,71.61
2019-01-15T00:55:52.244Z,74.17
2019-01-15T00:56:52.267Z,71.61
2019-01-15T00:57:52.228Z,73.69
2019-01-15T00:58:52.219Z,79.66
2019-01-15T00:59:52.214Z,80.41
2019-01-15T01:00:52.207Z,74.64
2019-01-15T01:01:52.232Z,77.10
2019-01-15T01:02:52.192Z,80.22
2019-01-15T01:03:52.189Z,77.20
2019-01-15T01:04:52.170Z,80.13
2019-01-15T01:05:52.204Z,81.74
2019-01-15T01:06:52.158Z,78.42
2019-01-15T01:07:52.187Z,74.36
2019-01-15T01:08:52.147Z,75.02
2019-01-15T01:09:52.143Z,74.55
2019-01-15T01:10:52.135Z,74.83
2019-01-15T01:11:52.131Z,78.52
2019-01-15T01:12:52.155Z,73.50
2019-01-15T01:13:52.115Z,68.30
2019-01-15T01:14:52.107Z,72.56
2019-01-15T01:15:52.129Z,76.25
2019-01-15T01:16:52.091Z,78.23
2019-01-15T01:17:52.091Z,71.42
2019-01-15T01:18:52.108Z,74.55
2019-01-15T01:19:52.071Z,73.69
2019-01-15T01:20:52.112Z,77.39
2019-01-15T01:21:52.065Z,78.80
2019-01-15T01:22:52.055Z,77.39
2019-01-15T01:23:52.070Z,79.56
2019-01-15T01:24:52.030Z,73.69
2019-01-15T01:25:52.025Z,74.64
2019-01-15T01:26:52.017Z,78.61
2019-01-15T01:27:52.008Z,74.17
2019-01-15T01:28:52.034Z,80.22
2019-01-15T01:29:52.007Z,77.10
2019-01-15T01:30:51.992Z,78.14
2019-01-15T01:31:51.985Z,77.01
2019-01-15T01:32:51.983Z,77.29
2019-01-15T01:33:51.989Z,77.67
2019-01-15T01:34:51.965Z,77.20
2019-01-15T01:35:51.981Z,83.15
2019-01-15T01:36:51.947Z,77.10
2019-01-15T01:37:51.947Z,85.42
2019-01-15T01:38:51.937Z,84.95
2019-01-15T01:39:51.954Z,81.74
2019-01-15T01:40:51.922Z,81.36
2019-01-15T01:41:51.917Z,82.12
2019-01-15T01:42:51.908Z,84.29
2019-01-15T01:43:51.903Z,86.37
2019-01-15T01:44:51.922Z,84.01
2019-01-15T01:45:51.917Z,84.29
2019-01-15T01:46:51.880Z,85.42
2019-01-15T01:47:51.871Z,82.68
2019-01-15T01:48:51.864Z,85.90
2019-01-15T01:49:51.850Z,79.47
2019-01-15T01:50:51.879Z,82.50
2019-01-15T01:51:51.843Z,84.77
2019-01-15T01:52:51.831Z,85.99
2019-01-15T01:53:51.828Z,85.14
2019-01-15T01:54:51.817Z,79.94
2019-01-15T01:55:51.837Z,76.91
2019-01-15T01:56:51.809Z,82.31
2019-01-15T01:57:51.799Z,78.52
2019-01-15T01:58:51.786Z,76.06
2019-01-15T01:59:51.786Z,83.72
2019-01-15T02:00:51.807Z,81.93
2019-01-15T02:01:51.771Z,87.98
2019-01-15T02:02:51.765Z,84.39
2019-01-15T02:03:51.758Z,86.56
2019-01-15T02:04:51.750Z,89.69
2019-01-15T02:05:51.779Z,84.77
2019-01-15T02:06:51.740Z,82.50
2019-01-15T02:07:51.730Z,87.60
2019-01-15T02:08:51.721Z,83.34
2019-01-15T02:09:51.712Z,80.88
2019-01-15T02:10:51.748Z,81.74
2019-01-15T02:11:51.700Z,82.21
2019-01-15T02:12:51.693Z,84.39
2019-01-15T02:13:51.683Z,90.34
2019-01-15T02:14:51.690Z,85.24
2019-01-15T02:15:51.701Z,86.85
2019-01-15T02:16:51.665Z,82.50
2019-01-15T02:17:51.660Z,84.95
2019-01-15T02:18:51.656Z,84.95
2019-01-15T02:19:51.647Z,84.67
2019-01-15T02:20:51.667Z,83.82
2019-01-15T02:21:51.630Z,84.29
2019-01-15T02:22:51.620Z,82.59
2019-01-15T02:23:51.618Z,84.67
2019-01-15T02:24:51.608Z,81.64
2019-01-15T02:25:51.633Z,81.74
2019-01-15T02:26:51.678Z,83.72
2019-01-15T02:27:51.593Z,86.94
2019-01-15T02:28:51.589Z,84.86
2019-01-15T02:29:51.575Z,84.58
2019-01-15T02:30:54.796Z,83.15
2019-01-15T02:31:51.560Z,83.15
2019-01-15T02:32:51.556Z,84.95
2019-01-15T02:33:51.550Z,87.13
2019-01-15T02:34:51.541Z,85.71
2019-01-15T02:35:51.563Z,81.64
2019-01-15T02:36:51.528Z,82.78
2019-01-15T02:37:51.519Z,86.75
2019-01-15T02:38:51.512Z,88.07
2019-01-15T02:39:51.508Z,87.32
2019-01-15T02:40:51.526Z,84.95
2019-01-15T02:41:51.494Z,85.61
2019-01-15T02:42:51.487Z,88.07
2019-01-15T02:43:51.485Z,90.06
2019-01-15T02:44:51.473Z,93.85
2019-01-15T02:45:51.494Z,91.39
2019-01-15T02:46:51.467Z,86.47
2019-01-15T02:47:51.454Z,94.51
2019-01-15T02:48:51.442Z,88.07
2019-01-15T02:49:51.434Z,87.13
2019-01-15T02:50:51.466Z,87.41
2019-01-15T02:51:51.421Z,86.94
2019-01-15T02:52:51.423Z,91.48
2019-01-15T02:53:51.413Z,88.17
2019-01-15T02:54:51.406Z,88.45
2019-01-15T02:55:51.433Z,85.99
2019-01-15T02:56:51.390Z,86.47
2019-01-15T02:57:51.381Z,88.45
2019-01-15T02:58:51.373Z,86.56
2019-01-15T02:59:51.364Z,84.20
2019-01-15T03:00:51.386Z,85.42
2019-01-15T03:01:51.352Z,91.29
2019-01-15T03:02:51.346Z,89.31
2019-01-15T03:03:51.343Z,88.45
2019-01-15T03:04:51.360Z,89.59
2019-01-15T03:05:51.360Z,90.63
2019-01-15T03:06:51.317Z,86.47
2019-01-15T03:07:51.316Z,94.13
2019-01-15T03:08:51.305Z,89.12
2019-01-15T03:09:51.294Z,84.39
2019-01-15T03:10:51.321Z,88.45
2019-01-15T03:11:51.281Z,89.97
2019-01-15T03:12:55.715Z,87.88
2019-01-15T03:13:51.296Z,87.51
2019-01-15T03:14:51.261Z,85.80
2019-01-15T03:15:51.285Z,95.07
2019-01-15T03:16:51.266Z,90.44
2019-01-15T03:17:51.237Z,92.43
2019-01-15T03:18:51.233Z,89.59
2019-01-15T03:19:51.226Z,88.26
2019-01-15T03:20:51.249Z,87.13
2019-01-15T03:21:51.219Z,93.94
2019-01-15T03:22:51.209Z,91.96
2019-01-15T03:23:51.204Z,89.78
2019-01-15T03:24:51.192Z,91.48
2019-01-15T03:25:51.219Z,92.14
2019-01-15T03:26:51.180Z,89.97
2019-01-15T03:27:51.172Z,94.89
2019-01-15T03:28:51.162Z,93.56
2019-01-15T03:29:51.159Z,90.63
2019-01-15T03:30:51.184Z,91.10
2019-01-15T03:31:51.155Z,96.97
2019-01-15T03:32:51.148Z,96.40
2019-01-15T03:33:51.130Z,92.14
2019-01-15T03:34:51.122Z,89.31
2019-01-15T03:35:51.147Z,90.44
2019-01-15T03:36:51.113Z,91.39
2019-01-15T03:37:51.116Z,93.66
2019-01-15T03:38:51.094Z,92.33
2019-01-15T03:39:51.090Z,92.24
2019-01-15T03:40:51.109Z,92.24
2019-01-15T03:41:51.073Z,93.28
2019-01-15T03:42:51.069Z,94.51
2019-01-15T03:43:51.070Z,92.99
2019-01-15T03:44:51.081Z,89.31
2019-01-15T03:45:51.047Z,94.04
2019-01-15T03:46:51.047Z,91.39
2019-01-15T03:47:51.061Z,95.93
2019-01-15T03:48:51.024Z,94.79
2019-01-15T03:49:51.021Z,94.51
2019-01-15T03:50:51.043Z,93.18
2019-01-15T03:51:51.005Z,94.70
2019-01-15T03:52:50.998Z,93.94
2019-01-15T03:53:50.990Z,92.90
2019-01-15T03:54:50.983Z,96.97
2019-01-15T03:55:51.002Z,89.97
2019-01-15T03:56:50.974Z,94.13
2019-01-15T03:57:50.968Z,93.94
2019-01-15T03:58:50.954Z,91.39
2019-01-15T03:59:50.956Z,96.02
2019-01-15T04:00:50.973Z,94.60
2019-01-15T04:01:50.936Z,96.97
2019-01-15T04:02:50.929Z,94.51
2019-01-15T04:03:50.924Z,96.31
2019-01-15T04:04:50.923Z,99.99
2019-01-15T04:05:50.939Z,94.04
2019-01-15T04:06:50.895Z,98.20
2019-01-15T04:07:50.896Z,97.25
2019-01-15T04:08:50.892Z,99.05
2019-01-15T04:09:50.880Z,96.69
2019-01-15T04:10:50.906Z,96.97
2019-01-15T04:11:50.869Z,98.67
2019-01-15T04:12:50.888Z,99.33
2019-01-15T04:13:50.853Z,99.99
2019-01-15T04:14:50.851Z,97.44
2019-01-15T04:15:50.844Z,98.48
2019-01-15T04:16:50.861Z,95.64
2019-01-15T04:17:50.833Z,96.78
2019-01-15T04:18:50.824Z,99.99
2019-01-15T04:19:50.809Z,99.99
2019-01-15T04:20:50.801Z,99.99
2019-01-15T04:21:50.828Z,99.99
2019-01-15T04:22:50.793Z,99.99
2019-01-15T04:23:50.783Z,99.99
2019-01-15T04:24:50.774Z,96.97
2019-01-15T04:25:50.766Z,99.80
2019-01-15T04:26:50.793Z,92.52
2019-01-15T04:27:50.755Z,94.13
2019-01-15T04:28:50.751Z,96.88
2019-01-15T04:29:50.740Z,92.52
2019-01-15T04:30:50.732Z,94.60
2019-01-15T04:31:50.770Z,92.43
2019-01-15T04:32:50.718Z,99.15
2019-01-15T04:33:50.718Z,95.17
2019-01-15T04:34:50.705Z,99.99
2019-01-15T04:35:50.709Z,96.02
2019-01-15T04:36:50.716Z,96.40
2019-01-15T04:37:50.683Z,99.99
2019-01-15T04:38:50.702Z,99.99
2019-01-15T04:39:50.678Z,99.71
2019-01-15T04:40:50.669Z,91.67
2019-01-15T04:41:50.659Z,98.48
2019-01-15T04:42:50.673Z,98.48
2019-01-15T04:43:50.645Z,99.80
2019-01-15T04:44:50.637Z,98.86
2019-01-15T04:45:50.628Z,99.99
2019-01-15T04:46:50.621Z,94.79
2019-01-15T04:47:50.658Z,98.86
2019-01-15T04:48:50.611Z,98.67
2019-01-15T04:49:50.598Z,98.29
2019-01-15T04:50:50.603Z,96.12
2019-01-15T04:51:50.587Z,99.99
2019-01-15T04:52:50.607Z,99.33
2019-01-15T04:53:50.570Z,97.25
2019-01-15T04:54:50.566Z,96.40
2019-01-15T04:55:50.560Z,99.99
2019-01-15T04:56:50.553Z,96.97
2019-01-15T04:57:50.573Z,98.67
2019-01-15T04:58:50.577Z,98.67
2019-01-15T04:59:50.547Z,99.43
2019-01-15T05:00:50.523Z,96.40
2019-01-15T05:01:50.523Z,98.39
2019-01-15T05:02:50.515Z,99.80
2019-01-15T05:03:50.529Z,96.78
2019-01-15T05:04:50.501Z,99.99
2019-01-15T05:05:50.495Z,96.97
2019-01-15T05:06:50.491Z,97.91
2019-01-15T05:07:50.479Z,98.77
2019-01-15T05:08:50.496Z,99.99
2019-01-15T05:09:50.464Z,99.99
2019-01-15T05:10:50.447Z,99.99
2019-01-15T05:11:50.447Z,97.53
2019-01-15T05:12:50.435Z,99.99
2019-01-15T05:13:50.467Z,99.99
2019-01-15T05:14:50.425Z,98.67
2019-01-15T05:15:50.421Z,98.20
2019-01-15T05:16:50.414Z,99.99
2019-01-15T05:17:50.405Z,96.40
2019-01-15T05:18:50.424Z,97.63
2019-01-15T05:19:50.393Z,99.33
2019-01-15T05:20:50.381Z,99.99
2019-01-15T05:21:50.380Z,99.99
2019-01-15T05:22:50.369Z,99.62
2019-01-15T05:23:50.393Z,99.99
2019-01-15T05:24:50.356Z,99.99
2019-01-15T05:25:50.348Z,96.31
2019-01-15T05:26:50.342Z,98.10
2019-01-15T05:27:50.338Z,99.99
2019-01-15T05:28:50.355Z,99.99
2019-01-15T05:29:50.319Z,99.99
2019-01-15T05:30:50.314Z,99.99
2019-01-15T05:31:50.305Z,99.99
2019-01-15T05:32:50.349Z,99.99
2019-01-15T05:33:50.288Z,99.99
2019-01-15T05:34:50.289Z,99.99
2019-01-15T05:35:50.277Z,99.99
2019-01-15T05:36:50.266Z,99.24
2019-01-15T05:37:50.297Z,99.99
2019-01-15T05:38:50.259Z,99.10
2019-01-15T05:39:50.250Z,99.99
2019-01-15T05:40:50.245Z,99.99
2019-01-15T05:41:50.238Z,95.36
2019-01-15T05:42:50.266Z,99.99
2019-01-15T05:43:50.225Z,95.17
2019-01-15T05:44:50.214Z,99.99
2019-01-15T05:45:50.211Z,99.80
2019-01-15T05:46:50.202Z,99.62
2019-01-15T05:47:50.226Z,99.99
2019-01-15T05:48:50.189Z,99.99
2019-01-15T05:49:50.840Z,99.99
2019-01-15T05:50:50.180Z,98.86
2019-01-15T05:51:50.169Z,99.99
2019-01-15T05:52:50.193Z,99.99
2019-01-15T05:53:50.152Z,99.99
2019-01-15T05:54:50.177Z,99.99
2019-01-15T05:55:50.144Z,99.52
2019-01-15T05:56:50.144Z,99.99
2019-01-15T05:57:50.127Z,98.86
2019-01-15T05:58:50.150Z,99.99
2019-01-15T05:59:50.113Z,98.48
2019-01-15T06:00:50.107Z,98.39
2019-01-15T06:01:50.104Z,99.99
2019-01-15T06:02:51.011Z,93.28
2019-01-15T06:03:50.117Z,99.99
2019-01-15T06:04:50.077Z,99.99
2019-01-15T06:05:50.076Z,98.39
2019-01-15T06:06:53.440Z,99.99
2019-01-15T06:07:50.055Z,98.77
2019-01-15T06:08:50.080Z,98.48
2019-01-15T06:09:50.044Z,99.99
2019-01-15T06:10:50.035Z,98.77
2019-01-15T06:11:50.029Z,97.82
2019-01-15T06:12:50.018Z,99.99
2019-01-15T06:13:50.055Z,99.99
2019-01-15T06:14:50.006Z,99.99
2019-01-15T06:15:50.004Z,98.29
2019-01-15T06:16:49.994Z,94.13
2019-01-15T06:17:49.988Z,99.99
2019-01-15T06:18:50.021Z,96.31
2019-01-15T06:19:49.975Z,99.99
2019-01-15T06:20:49.967Z,99.99
2019-01-15T06:21:49.960Z,99.99
2019-01-15T06:22:49.965Z,99.99
2019-01-15T06:23:49.974Z,99.99
2019-01-15T06:24:49.939Z,99.99
2019-01-15T06:25:49.930Z,99.99
2019-01-15T06:26:49.928Z,99.05
2019-01-15T06:27:49.917Z,99.71
2019-01-15T06:28:49.939Z,99.99
2019-01-15T06:29:49.903Z,99.99
2019-01-15T06:30:49.898Z,99.99
2019-01-15T06:31:49.891Z,96.21
2019-01-15T06:32:49.911Z,99.99
2019-01-15T06:33:49.877Z,98.77
2019-01-15T06:34:49.869Z,99.99
2019-01-15T06:35:49.860Z,99.99
2019-01-15T06:36:49.852Z,98.96
2019-01-15T06:37:51.421Z,99.99
2019-01-15T06:38:49.841Z,98.10
2019-01-15T06:39:49.832Z,99.99
2019-01-15T06:40:49.827Z,99.52
2019-01-15T06:41:49.816Z,99.90
2019-01-15T06:42:49.841Z,99.33
2019-01-15T06:43:50.249Z,99.99
2019-01-15T06:44:49.808Z,99.99
2019-01-15T06:45:49.791Z,99.99
2019-01-15T06:46:49.784Z,96.40
2019-01-15T06:47:49.839Z,99.99
2019-01-15T06:48:49.858Z,99.99
2019-01-15T06:49:49.789Z,99.99
2019-01-15T06:50:49.757Z,96.59
2019-01-15T06:51:49.752Z,98.25
2019-01-15T06:52:49.749Z,99.99
2019-01-15T06:53:49.744Z,99.99
2019-01-15T06:54:49.729Z,98.29
2019-01-15T06:55:49.723Z,99.99
2019-01-15T06:56:49.715Z,99.99
2019-01-15T06:57:49.712Z,99.99
2019-01-15T06:58:49.733Z,99.99
2019-01-15T06:59:49.699Z,99.99
2019-01-15T07:00:49.686Z,99.99
2019-01-15T07:01:49.683Z,99.99
2019-01-15T07:02:49.677Z,99.99
2019-01-15T07:03:49.697Z,99.99
2019-01-15T07:04:49.658Z,99.99
2019-01-15T07:05:49.662Z,97.16
2019-01-15T07:06:49.647Z,99.99
2019-01-15T07:07:49.639Z,99.99
2019-01-15T07:08:49.659Z,99.43
2019-01-15T07:09:49.630Z,99.99
2019-01-15T07:10:49.617Z,99.99
2019-01-15T07:11:49.615Z,96.69
2019-01-15T07:12:49.608Z,98.29
2019-01-15T07:13:49.631Z,96.97
2019-01-15T07:14:49.589Z,99.05
2019-01-15T07:15:49.595Z,96.02
2019-01-15T07:16:49.582Z,99.24
2019-01-15T07:17:49.569Z,99.99
2019-01-15T07:18:49.593Z,99.99
2019-01-15T07:19:49.559Z,99.33
2019-01-15T07:20:49.579Z,98.67
2019-01-15T07:21:49.541Z,99.99
2019-01-15T07:22:49.540Z,99.99
2019-01-15T07:23:49.528Z,96.97
2019-01-15T07:24:49.550Z,91.96
2019-01-15T07:25:49.516Z,97.34
2019-01-15T07:26:49.507Z,99.99
2019-01-15T07:27:49.502Z,99.99
2019-01-15T07:28:49.493Z,99.99
2019-01-15T07:29:49.517Z,99.99
2019-01-15T07:34:21.967Z,99.66
2019-01-15T07:34:54.372Z,99.99
2019-01-15T07:35:54.395Z,99.38
2019-01-15T07:36:54.362Z,99.99
2019-01-15T07:37:54.351Z,99.99
2019-01-15T07:38:54.349Z,99.99
2019-01-15T07:39:54.367Z,99.99
2019-01-15T07:40:54.330Z,99.99
2019-01-15T07:41:54.323Z,99.99
2019-01-15T07:42:54.326Z,99.99
2019-01-15T07:43:54.310Z,99.99
2019-01-15T07:44:54.332Z,99.99
2019-01-15T07:45:54.327Z,99.99
2019-01-15T07:46:54.290Z,99.99
2019-01-15T07:47:54.284Z,99.99
2019-01-15T07:48:54.281Z,99.99
2019-01-15T07:49:54.271Z,99.99
2019-01-15T07:50:54.289Z,99.99
2019-01-15T07:51:54.260Z,99.99
2019-01-15T07:52:54.249Z,99.99
2019-01-15T07:53:54.370Z,99.99
2019-01-15T07:54:54.270Z,99.99
2019-01-15T07:55:54.261Z,99.99
2019-01-15T07:56:54.221Z,99.99
2019-01-15T07:57:54.217Z,99.99
2019-01-15T07:58:54.208Z,99.99
2019-01-15T07:59:54.204Z,99.99
2019-01-15T08:00:54.229Z,99.99
2019-01-15T08:01:54.204Z,99.99
2019-01-15T08:02:54.187Z,99.99
2019-01-15T08:03:54.637Z,99.99
2019-01-15T08:04:54.175Z,99.99
2019-01-15T08:05:54.192Z,99.99
2019-01-15T08:06:54.162Z,99.99
2019-01-15T08:07:54.151Z,99.99
2019-01-15T08:08:54.145Z,99.99
2019-01-15T08:09:54.283Z,99.99
2019-01-15T08:10:57.091Z,99.99
2019-01-15T08:11:54.128Z,99.99
2019-01-15T08:12:54.120Z,99.99
2019-01-15T08:13:54.110Z,99.99
2019-01-15T08:14:54.106Z,99.99
2019-01-15T08:15:54.616Z,99.99
2019-01-15T08:16:54.167Z,99.99
2019-01-15T08:17:54.089Z,99.99
2019-01-15T08:18:54.280Z,99.99
2019-01-15T08:19:54.076Z,99.99
2019-01-15T08:20:54.095Z,99.99
2019-01-15T08:21:55.035Z,99.99
2019-01-15T08:22:54.065Z,99.99
2019-01-15T08:23:54.051Z,99.99
2019-01-15T08:24:54.048Z,99.99
2019-01-15T08:25:54.067Z,99.99
2019-01-15T08:26:54.035Z,99.99
2019-01-15T08:27:54.027Z,99.99
2019-01-15T08:28:54.026Z,99.99
2019-01-15T08:29:54.014Z,99.99
2019-01-15T08:30:54.038Z,99.99
2019-01-15T08:31:54.003Z,99.99
2019-01-15T08:32:54.002Z,99.99
2019-01-15T08:33:54.002Z,99.99
2019-01-15T08:34:53.992Z,99.99
2019-01-15T08:35:54.015Z,99.99
2019-01-15T08:36:53.975Z,99.99
2019-01-15T08:37:53.969Z,99.99
2019-01-15T08:38:53.963Z,99.99
2019-01-15T08:39:53.957Z,99.99
2019-01-15T08:40:53.986Z,99.99
2019-01-15T08:41:53.975Z,99.99
2019-01-15T08:42:53.942Z,99.99
2019-01-15T08:43:53.933Z,99.99
2019-01-15T08:44:53.934Z,99.99
2019-01-15T08:45:55.327Z,99.99
2019-01-15T08:46:53.938Z,99.99
2019-01-15T08:47:53.914Z,99.99
2019-01-15T08:48:53.908Z,99.99
2019-01-15T08:49:53.899Z,99.99
2019-01-15T08:50:53.893Z,99.99
2019-01-15T08:51:53.916Z,99.99
2019-01-15T08:52:53.881Z,99.99
2019-01-15T08:53:53.876Z,99.99
2019-01-15T08:54:53.873Z,99.99
2019-01-15T08:55:53.862Z,99.99
2019-01-15T08:56:53.887Z,99.99
2019-01-15T08:57:53.851Z,99.99
2019-01-15T08:58:53.847Z,99.99
2019-01-15T08:59:53.837Z,99.99
2019-01-15T09:00:53.835Z,99.99
2019-01-15T09:01:53.862Z,99.99
2019-01-15T09:02:53.823Z,99.99
2019-01-15T09:03:53.818Z,99.99
2019-01-15T09:04:53.813Z,99.99
2019-01-15T09:05:53.806Z,99.99
2019-01-15T09:06:53.830Z,99.99
2019-01-15T09:07:53.795Z,99.99
2019-01-15T09:08:53.791Z,99.99
2019-01-15T09:09:53.787Z,99.99
2019-01-15T09:10:53.785Z,99.99
2019-01-15T09:11:53.807Z,99.99
2019-01-15T09:12:53.770Z,99.99
2019-01-15T09:13:53.766Z,99.99
2019-01-15T09:14:53.762Z,99.99
2019-01-15T09:15:53.758Z,99.99
2019-01-15T09:16:53.780Z,99.99
2019-01-15T09:17:53.749Z,99.99
2019-01-15T09:18:53.741Z,99.99
2019-01-15T09:19:53.732Z,99.99
2019-01-15T09:20:53.727Z,99.99
2019-01-15T09:21:53.760Z,99.99
2019-01-15T09:22:53.749Z,99.99
2019-01-15T09:23:53.714Z,99.99
2019-01-15T09:24:53.713Z,99.99
2019-01-15T09:25:53.706Z,99.99
2019-01-15T09:26:53.701Z,99.99
2019-01-15T09:27:53.724Z,99.99
2019-01-15T09:28:53.689Z,99.99
2019-01-15T09:29:53.684Z,99.99
2019-01-15T09:30:53.682Z,99.99
2019-01-15T09:31:53.676Z,99.99
2019-01-15T09:32:53.700Z,99.99
2019-01-15T09:33:53.665Z,99.99
2019-01-15T09:34:53.663Z,99.99
2019-01-15T09:35:53.655Z,99.99
2019-01-15T09:36:53.650Z,99.99
2019-01-15T09:37:53.674Z,99.99
2019-01-15T09:38:53.640Z,99.99
2019-01-15T09:39:53.636Z,99.99
2019-01-15T09:40:53.628Z,99.99
2019-01-15T09:41:53.632Z,99.99
2019-01-15T09:42:53.650Z,99.99
2019-01-15T09:43:53.618Z,99.99
2019-01-15T09:44:53.609Z,99.99
2019-01-15T09:45:53.604Z,99.99
2019-01-15T09:46:53.600Z,99.99
2019-01-15T09:47:53.626Z,99.99
2019-01-15T09:48:53.585Z,99.99
2019-01-15T09:49:53.582Z,99.99
2019-01-15T09:50:53.581Z,99.99
2019-01-15T09:51:53.577Z,99.99
2019-01-15T09:52:53.599Z,99.99
2019-01-15T09:53:53.588Z,99.99
2019-01-15T09:54:53.559Z,99.99
2019-01-15T09:55:53.554Z,99.99
2019-01-15T09:56:53.545Z,99.99
2019-01-15T09:57:53.549Z,99.99
2019-01-15T09:58:53.566Z,99.99
2019-01-15T09:59:53.537Z,99.99
2019-01-15T10:00:53.530Z,99.99
2019-01-15T10:01:53.527Z,99.99
2019-01-15T10:02:53.525Z,99.99
2019-01-15T10:03:53.541Z,99.99
2019-01-15T10:04:53.506Z,99.99
2019-01-15T10:05:53.501Z,99.99
2019-01-15T10:06:53.499Z,99.99
2019-01-15T10:07:53.520Z,99.99
2019-01-15T10:08:53.485Z,99.99
2019-01-15T10:09:53.484Z,99.99
2019-01-15T10:10:53.478Z,99.99
2019-01-15T10:11:53.473Z,99.99
2019-01-15T10:12:53.493Z,99.99
2019-01-15T10:13:53.488Z,99.99
2019-01-15T10:14:53.456Z,99.99
2019-01-15T10:15:53.453Z,99.99
2019-01-15T10:16:53.443Z,99.99
2019-01-15T10:17:53.442Z,99.99
2019-01-15T10:18:53.463Z,99.99
2019-01-15T10:19:53.432Z,99.99
2019-01-15T10:20:53.426Z,99.99
2019-01-15T10:21:53.428Z,99.99
2019-01-15T10:22:53.447Z,99.99
2019-01-15T10:23:53.410Z,99.99
2019-01-15T10:24:53.403Z,99.99
2019-01-15T10:25:53.399Z,99.99
2019-01-15T10:26:53.404Z,99.99
2019-01-15T10:27:53.418Z,99.99
2019-01-15T10:28:53.383Z,99.99
2019-01-15T10:29:59.080Z,99.99
2019-01-15T10:30:53.376Z,99.99
2019-01-15T10:31:53.370Z,99.99
2019-01-15T10:32:53.391Z,99.99
2019-01-15T10:33:53.358Z,99.99
2019-01-15T10:34:53.354Z,99.99
2019-01-15T10:35:53.378Z,99.99
2019-01-15T10:36:53.343Z,99.99
2019-01-15T10:37:53.344Z,99.99
2019-01-15T10:38:53.334Z,99.99
2019-01-15T10:39:53.327Z,99.99
2019-01-15T10:40:53.349Z,99.99
2019-01-15T10:41:53.318Z,99.99
2019-01-15T10:42:53.310Z,99.99
2019-01-15T10:43:53.308Z,99.99
2019-01-15T10:44:53.302Z,99.99
2019-01-15T10:45:53.325Z,99.99
2019-01-15T10:46:53.290Z,99.99
2019-01-15T10:47:53.290Z,99.99
2019-01-15T10:48:53.283Z,99.99
2019-01-15T10:49:53.277Z,99.99
2019-01-15T10:50:53.296Z,99.99
2019-01-15T10:51:53.264Z,99.99
2019-01-15T10:52:53.260Z,99.99
2019-01-15T10:53:53.259Z,99.99
2019-01-15T10:54:53.249Z,99.99
2019-01-15T10:55:53.273Z,99.99
2019-01-15T10:56:53.241Z,99.99
2019-01-15T10:57:53.238Z,99.99
2019-01-15T10:58:53.231Z,99.99
2019-01-15T10:59:53.234Z,99.99
2019-01-15T11:00:53.245Z,99.99
2019-01-15T11:01:53.216Z,99.99
2019-01-15T11:02:53.209Z,99.99
2019-01-15T11:03:53.204Z,99.99
2019-01-15T11:04:53.200Z,99.99
2019-01-15T11:05:53.223Z,99.99
2019-01-15T11:06:53.192Z,99.99
2019-01-15T11:07:53.191Z,99.99
2019-01-15T11:08:53.206Z,99.99
2019-01-15T11:09:53.177Z,99.99
2019-01-15T11:10:53.200Z,99.99
2019-01-15T11:11:53.167Z,99.99
2019-01-15T11:12:53.162Z,99.99
2019-01-15T11:13:53.182Z,99.99
2019-01-15T11:14:56.164Z,99.99
2019-01-15T11:15:53.148Z,99.99
2019-01-15T11:16:53.168Z,99.99
2019-01-15T11:17:53.135Z,99.99
2019-01-15T11:18:53.130Z,99.99
2019-01-15T11:19:53.127Z,99.99
2019-01-15T11:20:53.122Z,99.99
2019-01-15T11:21:53.143Z,99.99
2019-01-15T11:22:53.116Z,99.99
2019-01-15T11:23:53.138Z,99.99
2019-01-15T11:24:53.101Z,99.99
2019-01-15T11:25:53.098Z,99.99
2019-01-15T11:26:53.093Z,99.99
2019-01-15T11:27:53.123Z,99.99
2019-01-15T11:28:53.087Z,99.99
2019-01-15T11:29:53.077Z,99.99
2019-01-15T11:30:53.074Z,99.99
2019-01-15T11:31:53.070Z,99.99
2019-01-15T11:32:53.093Z,99.99
2019-01-15T11:33:53.057Z,99.99
2019-01-15T11:34:53.054Z,99.99
2019-01-15T11:35:53.054Z,99.99
2019-01-15T11:36:53.051Z,99.99
2019-01-15T11:37:53.075Z,99.99
2019-01-15T11:38:53.036Z,99.99
2019-01-15T11:39:53.033Z,99.99
2019-01-15T11:40:53.023Z,99.99
2019-01-15T11:41:53.023Z,99.99
2019-01-15T11:42:53.045Z,99.99
2019-01-15T11:43:53.014Z,99.99
2019-01-15T11:44:53.007Z,99.99
2019-01-15T11:45:53.001Z,99.99
2019-01-15T11:46:52.996Z,99.99
2019-01-15T11:47:53.022Z,99.99
2019-01-15T11:48:53.010Z,99.99
2019-01-15T11:49:52.987Z,99.99
2019-01-15T11:50:52.976Z,99.99
2019-01-15T11:51:52.970Z,99.99
2019-01-15T11:52:52.999Z,99.99
2019-01-15T11:53:52.966Z,99.99
2019-01-15T11:54:52.958Z,99.99
2019-01-15T11:55:52.956Z,99.99
2019-01-15T11:56:52.948Z,99.99
2019-01-15T11:57:52.971Z,99.99
2019-01-15T11:58:52.941Z,99.99
2019-01-15T11:59:52.936Z,99.99
2019-01-15T12:00:52.931Z,99.99
2019-01-15T12:01:52.923Z,99.99
2019-01-15T12:02:52.948Z,99.99
2019-01-15T12:03:52.915Z,99.99
2019-01-15T12:04:52.954Z,99.99
2019-01-15T12:05:52.905Z,99.99
2019-01-15T12:06:52.899Z,99.99
2019-01-15T12:07:52.898Z,99.99
2019-01-15T12:08:52.922Z,99.99
2019-01-15T12:09:52.900Z,99.99
2019-01-15T12:10:52.883Z,99.99
2019-01-15T12:11:52.881Z,99.99
2019-01-15T12:12:52.870Z,99.99
2019-01-15T12:13:52.893Z,99.99
2019-01-15T12:14:52.867Z,99.99
2019-01-15T12:15:52.858Z,99.99
2019-01-15T12:16:52.852Z,99.99
2019-01-15T12:17:52.862Z,99.99
2019-01-15T12:18:52.870Z,99.99
2019-01-15T12:19:52.838Z,99.99
2019-01-15T12:20:52.829Z,99.99
2019-01-15T12:21:52.823Z,99.99
2019-01-15T12:22:52.822Z,99.99
2019-01-15T12:23:52.844Z,99.99
2019-01-15T12:24:52.811Z,99.99
2019-01-15T12:25:52.805Z,99.99
2019-01-15T12:26:52.802Z,99.99
2019-01-15T12:27:52.796Z,99.99
2019-01-15T12:28:52.817Z,99.99
2019-01-15T12:29:52.784Z,99.99
2019-01-15T12:30:52.781Z,99.99
2019-01-15T12:31:52.805Z,99.99
2019-01-15T12:32:52.767Z,99.99
2019-01-15T12:33:52.765Z,99.99
2019-01-15T12:34:52.783Z,99.99
2019-01-15T12:35:52.751Z,99.99
2019-01-15T12:36:52.749Z,99.99
2019-01-15T12:37:52.743Z,99.99
2019-01-15T12:38:52.767Z,99.99
2019-01-15T12:39:52.735Z,99.99
2019-01-15T12:40:52.727Z,99.99
2019-01-15T12:41:52.752Z,99.99
2019-01-15T12:42:52.714Z,99.99
2019-01-15T12:43:52.715Z,99.99
2019-01-15T12:44:52.740Z,99.99
2019-01-15T12:45:52.703Z,99.99
2019-01-15T12:46:52.698Z,99.99
2019-01-15T12:47:52.718Z,99.99
2019-01-15T12:48:52.688Z,99.99
2019-01-15T12:49:52.679Z,99.99
2019-01-15T12:50:52.702Z,99.99
2019-01-15T12:51:52.671Z,99.99
2019-01-15T12:52:52.662Z,99.99
2019-01-15T12:53:52.658Z,99.99
2019-01-15T12:54:52.654Z,99.99
2019-01-15T12:55:52.673Z,99.99